sensor_id;sensor_type;location;lat;lon;timestamp;temperature;humidity
8537;DHT22;4306;50.210;10.628;2022-11-20T00:01:25;-4.00;99.90
8537;DHT22;4306;50.210;10.628;2022-11-20T00:03:54;-4.00;99.90
8537;DHT22;4306;50.210;10.628;2022-11-20T00:06:22;-4.20;99.90
8537;DHT22;4306;50.210;10.628;2022-11-20T00:08:49;-4.30;99.90
8537;DHT22;4306;50.210;10.628;2022-11-20T00:11:19;-4.10;99.90
8537;DHT22;4306;50.210;10.628;2022-11-20T00:13:47;-4.10;99.90
8537;DHT22;4306;50.210;10.628;2022-11-20T00:16:16;-4.00;99.90
8537;DHT22;4306;50.210;10.628;2022-11-20T00:18:45;-3.90;99.90
8537;DHT22;4306;50.210;10.628;2022-11-20T00:21:13;-4.00;99.90
8537;DHT22;4306;50.210;10.628;2022-11-20T00:23:41;-4.00;99.90
8537;DHT22;4306;50.210;10.628;2022-11-20T00:26:09;-4.10;99.90
8537;DHT22;4306;50.210;10.628;2022-11-20T00:28:37;-4.10;99.90
8537;DHT22;4306;50.210;10.628;2022-11-20T00:31:05;-4.00;99.90
8537;DHT22;4306;50.210;10.628;2022-11-20T00:33:33;-4.00;99.90
8537;DHT22;4306;50.210;10.628;2022-11-20T00:36:01;-4.00;99.90
8537;DHT22;4306;50.210;10.628;2022-11-20T00:38:29;-4.00;99.90
8537;DHT22;4306;50.210;10.628;2022-11-20T00:40:57;-3.90;99.90
8537;DHT22;4306;50.210;10.628;2022-11-20T00:43:24;-3.90;99.90
8537;DHT22;4306;50.210;10.628;2022-11-20T00:45:55;-3.90;99.90
8537;DHT22;4306;50.210;10.628;2022-11-20T00:48:22;-4.00;99.90
8537;DHT22;4306;50.210;10.628;2022-11-20T00:50:49;-3.90;99.90
8537;DHT22;4306;50.210;10.628;2022-11-20T00:53:17;-3.90;99.90
8537;DHT22;4306;50.210;10.628;2022-11-20T00:55:53;-3.80;99.90
8537;DHT22;4306;50.210;10.628;2022-11-20T00:58:20;-3.80;99.90
8537;DHT22;4306;50.210;10.628;2022-11-20T01:00:47;-3.70;99.90
8537;DHT22;4306;50.210;10.628;2022-11-20T01:03:14;-3.70;99.90
8537;DHT22;4306;50.210;10.628;2022-11-20T01:05:41;-3.70;99.90
8537;DHT22;4306;50.210;10.628;2022-11-20T01:08:08;-3.70;99.90
8537;DHT22;4306;50.210;10.628;2022-11-20T01:10:37;-3.70;99.90
8537;DHT22;4306;50.210;10.628;2022-11-20T01:13:04;-3.70;99.90
8537;DHT22;4306;50.210;10.628;2022-11-20T01:15:48;-3.70;99.90
8537;DHT22;4306;50.210;10.628;2022-11-20T01:18:15;-3.80;99.90
8537;DHT22;4306;50.210;10.628;2022-11-20T01:20:42;-3.80;99.90
8537;DHT22;4306;50.210;10.628;2022-11-20T01:23:09;-3.80;99.90
8537;DHT22;4306;50.210;10.628;2022-11-20T01:25:37;-3.90;99.90
8537;DHT22;4306;50.210;10.628;2022-11-20T01:28:03;-3.90;99.90
8537;DHT22;4306;50.210;10.628;2022-11-20T01:30:30;-3.90;99.90
8537;DHT22;4306;50.210;10.628;2022-11-20T01:32:57;-3.90;99.90
8537;DHT22;4306;50.210;10.628;2022-11-20T01:35:24;-3.80;99.90
8537;DHT22;4306;50.210;10.628;2022-11-20T01:37:51;-3.80;99.90
8537;DHT22;4306;50.210;10.628;2022-11-20T01:40:18;-3.90;99.90
8537;DHT22;4306;50.210;10.628;2022-11-20T01:42:47;-3.80;99.90
8537;DHT22;4306;50.210;10.628;2022-11-20T01:46:05;-3.70;99.90
8537;DHT22;4306;50.210;10.628;2022-11-20T01:48:36;-3.70;99.90
8537;DHT22;4306;50.210;10.628;2022-11-20T01:51:06;-3.70;99.90
8537;DHT22;4306;50.210;10.628;2022-11-20T01:53:36;-3.60;99.90
8537;DHT22;4306;50.210;10.628;2022-11-20T01:56:06;-3.50;99.90
8537;DHT22;4306;50.210;10.628;2022-11-20T01:58:40;-3.50;99.90
8537;DHT22;4306;50.210;10.628;2022-11-20T02:01:08;-3.40;99.90
8537;DHT22;4306;50.210;10.628;2022-11-20T02:03:35;-3.40;99.90
8537;DHT22;4306;50.210;10.628;2022-11-20T02:06:07;-3.40;99.90
8537;DHT22;4306;50.210;10.628;2022-11-20T02:08:37;-3.40;99.90
8537;DHT22;4306;50.210;10.628;2022-11-20T02:11:05;-3.40;99.90
8537;DHT22;4306;50.210;10.628;2022-11-20T02:13:31;-3.30;99.90
8537;DHT22;4306;50.210;10.628;2022-11-20T02:16:15;-3.20;99.90
8537;DHT22;4306;50.210;10.628;2022-11-20T02:18:43;-3.20;99.90
8537;DHT22;4306;50.210;10.628;2022-11-20T02:21:19;-3.20;99.90
8537;DHT22;4306;50.210;10.628;2022-11-20T02:24:09;-3.10;99.90
8537;DHT22;4306;50.210;10.628;2022-11-20T02:26:41;-3.10;99.90
8537;DHT22;4306;50.210;10.628;2022-11-20T02:29:09;-3.00;99.90
8537;DHT22;4306;50.210;10.628;2022-11-20T02:31:38;-3.00;99.90
8537;DHT22;4306;50.210;10.628;2022-11-20T02:34:05;-2.90;99.90
8537;DHT22;4306;50.210;10.628;2022-11-20T02:36:33;-2.90;99.90
8537;DHT22;4306;50.210;10.628;2022-11-20T02:39:01;-2.80;99.90
8537;DHT22;4306;50.210;10.628;2022-11-20T02:41:33;-2.80;99.90
8537;DHT22;4306;50.210;10.628;2022-11-20T02:44:01;-2.70;99.90
8537;DHT22;4306;50.210;10.628;2022-11-20T02:46:29;-2.80;99.90
8537;DHT22;4306;50.210;10.628;2022-11-20T02:48:55;-2.80;99.90
8537;DHT22;4306;50.210;10.628;2022-11-20T02:51:23;-2.70;99.90
8537;DHT22;4306;50.210;10.628;2022-11-20T02:53:50;-2.70;99.90
8537;DHT22;4306;50.210;10.628;2022-11-20T02:56:17;-2.60;99.90
8537;DHT22;4306;50.210;10.628;2022-11-20T02:58:45;-2.60;99.90
8537;DHT22;4306;50.210;10.628;2022-11-20T03:01:12;-2.60;99.90
8537;DHT22;4306;50.210;10.628;2022-11-20T03:03:38;-2.60;99.90
8537;DHT22;4306;50.210;10.628;2022-11-20T03:06:06;-2.50;99.90
8537;DHT22;4306;50.210;10.628;2022-11-20T03:08:33;-2.50;99.90
8537;DHT22;4306;50.210;10.628;2022-11-20T03:11:03;-2.50;99.90
8537;DHT22;4306;50.210;10.628;2022-11-20T03:13:30;-2.60;99.90
8537;DHT22;4306;50.210;10.628;2022-11-20T03:15:58;-2.60;99.90
8537;DHT22;4306;50.210;10.628;2022-11-20T03:18:27;-2.60;99.90
8537;DHT22;4306;50.210;10.628;2022-11-20T03:20:57;-2.60;99.90
8537;DHT22;4306;50.210;10.628;2022-11-20T03:23:24;-2.60;99.90
8537;DHT22;4306;50.210;10.628;2022-11-20T03:25:51;-2.60;99.90
8537;DHT22;4306;50.210;10.628;2022-11-20T03:28:18;-2.70;99.90
8537;DHT22;4306;50.210;10.628;2022-11-20T03:30:45;-2.70;99.90
8537;DHT22;4306;50.210;10.628;2022-11-20T03:33:13;-2.60;99.90
8537;DHT22;4306;50.210;10.628;2022-11-20T03:35:40;-2.50;99.90
8537;DHT22;4306;50.210;10.628;2022-11-20T03:38:06;-2.40;99.90
8537;DHT22;4306;50.210;10.628;2022-11-20T03:40:34;-2.40;99.90
8537;DHT22;4306;50.210;10.628;2022-11-20T03:43:01;-2.40;99.90
8537;DHT22;4306;50.210;10.628;2022-11-20T03:45:27;-2.40;99.90
8537;DHT22;4306;50.210;10.628;2022-11-20T03:47:54;-2.30;99.90
8537;DHT22;4306;50.210;10.628;2022-11-20T03:50:22;-2.30;99.90
8537;DHT22;4306;50.210;10.628;2022-11-20T03:52:49;-2.30;99.90
8537;DHT22;4306;50.210;10.628;2022-11-20T03:55:16;-2.30;99.90
8537;DHT22;4306;50.210;10.628;2022-11-20T03:57:43;-2.20;99.90
8537;DHT22;4306;50.210;10.628;2022-11-20T04:00:11;-2.10;99.90
8537;DHT22;4306;50.210;10.628;2022-11-20T04:02:38;-2.20;99.90
8537;DHT22;4306;50.210;10.628;2022-11-20T04:05:05;-2.10;99.90
8537;DHT22;4306;50.210;10.628;2022-11-20T04:07:35;-2.10;99.90
8537;DHT22;4306;50.210;10.628;2022-11-20T04:10:02;-2.10;99.90
8537;DHT22;4306;50.210;10.628;2022-11-20T04:12:32;-2.10;99.90
8537;DHT22;4306;50.210;10.628;2022-11-20T04:14:59;-2.20;99.90
8537;DHT22;4306;50.210;10.628;2022-11-20T04:17:25;-2.30;99.90
8537;DHT22;4306;50.210;10.628;2022-11-20T04:19:52;-2.20;99.90
8537;DHT22;4306;50.210;10.628;2022-11-20T04:22:19;-2.20;99.90
8537;DHT22;4306;50.210;10.628;2022-11-20T04:24:47;-2.20;99.90
8537;DHT22;4306;50.210;10.628;2022-11-20T04:27:14;-2.30;99.90
8537;DHT22;4306;50.210;10.628;2022-11-20T04:29:41;-2.20;99.90
8537;DHT22;4306;50.210;10.628;2022-11-20T04:32:08;-2.10;99.90
8537;DHT22;4306;50.210;10.628;2022-11-20T04:34:35;-2.10;99.90
8537;DHT22;4306;50.210;10.628;2022-11-20T04:37:01;-2.00;99.90
8537;DHT22;4306;50.210;10.628;2022-11-20T04:39:28;-2.00;99.90
8537;DHT22;4306;50.210;10.628;2022-11-20T04:41:56;-2.00;99.90
8537;DHT22;4306;50.210;10.628;2022-11-20T04:44:37;-2.00;99.90
8537;DHT22;4306;50.210;10.628;2022-11-20T04:47:04;-2.00;99.90
8537;DHT22;4306;50.210;10.628;2022-11-20T04:49:31;-2.00;99.90
8537;DHT22;4306;50.210;10.628;2022-11-20T04:51:59;-1.90;99.90
8537;DHT22;4306;50.210;10.628;2022-11-20T04:54:26;-1.90;99.90
8537;DHT22;4306;50.210;10.628;2022-11-20T04:56:52;-1.90;99.90
8537;DHT22;4306;50.210;10.628;2022-11-20T04:59:21;-1.90;99.90
8537;DHT22;4306;50.210;10.628;2022-11-20T05:01:47;-1.80;99.90
8537;DHT22;4306;50.210;10.628;2022-11-20T05:04:14;-1.80;99.90
8537;DHT22;4306;50.210;10.628;2022-11-20T05:06:41;-1.80;99.90
8537;DHT22;4306;50.210;10.628;2022-11-20T05:09:08;-1.80;99.90
8537;DHT22;4306;50.210;10.628;2022-11-20T05:11:35;-1.80;99.90
8537;DHT22;4306;50.210;10.628;2022-11-20T05:14:02;-1.70;99.90
8537;DHT22;4306;50.210;10.628;2022-11-20T05:16:30;-1.80;99.90
8537;DHT22;4306;50.210;10.628;2022-11-20T05:18:57;-1.70;99.90
8537;DHT22;4306;50.210;10.628;2022-11-20T05:21:23;-1.70;99.90
8537;DHT22;4306;50.210;10.628;2022-11-20T05:23:50;-1.70;99.90
8537;DHT22;4306;50.210;10.628;2022-11-20T05:26:19;-1.70;99.90
8537;DHT22;4306;50.210;10.628;2022-11-20T05:28:46;-1.60;99.90
8537;DHT22;4306;50.210;10.628;2022-11-20T05:31:15;-1.70;99.90
8537;DHT22;4306;50.210;10.628;2022-11-20T05:33:44;-1.60;99.90
8537;DHT22;4306;50.210;10.628;2022-11-20T05:36:12;-1.60;99.90
8537;DHT22;4306;50.210;10.628;2022-11-20T05:38:40;-1.60;99.90
8537;DHT22;4306;50.210;10.628;2022-11-20T05:41:08;-1.60;99.90
8537;DHT22;4306;50.210;10.628;2022-11-20T05:43:35;-1.60;99.90
8537;DHT22;4306;50.210;10.628;2022-11-20T05:46:03;-1.60;99.90
8537;DHT22;4306;50.210;10.628;2022-11-20T05:48:31;-1.60;99.90
8537;DHT22;4306;50.210;10.628;2022-11-20T05:51:00;-1.60;99.90
8537;DHT22;4306;50.210;10.628;2022-11-20T05:53:28;-1.50;99.90
8537;DHT22;4306;50.210;10.628;2022-11-20T05:55:58;-1.50;99.90
8537;DHT22;4306;50.210;10.628;2022-11-20T05:58:26;-1.60;99.90
8537;DHT22;4306;50.210;10.628;2022-11-20T06:00:52;-1.50;99.90
8537;DHT22;4306;50.210;10.628;2022-11-20T06:03:19;-1.50;99.90
8537;DHT22;4306;50.210;10.628;2022-11-20T06:05:47;-1.50;99.90
8537;DHT22;4306;50.210;10.628;2022-11-20T06:08:15;-1.60;99.90
8537;DHT22;4306;50.210;10.628;2022-11-20T06:10:42;-1.70;99.90
8537;DHT22;4306;50.210;10.628;2022-11-20T06:13:09;-1.70;99.90
8537;DHT22;4306;50.210;10.628;2022-11-20T06:15:36;-1.60;99.90
8537;DHT22;4306;50.210;10.628;2022-11-20T06:18:02;-1.50;99.90
8537;DHT22;4306;50.210;10.628;2022-11-20T06:20:29;-1.60;99.90
8537;DHT22;4306;50.210;10.628;2022-11-20T06:22:56;-1.60;99.90
8537;DHT22;4306;50.210;10.628;2022-11-20T06:25:24;-1.50;99.90
8537;DHT22;4306;50.210;10.628;2022-11-20T06:27:51;-1.50;99.90
8537;DHT22;4306;50.210;10.628;2022-11-20T06:30:18;-1.50;99.90
8537;DHT22;4306;50.210;10.628;2022-11-20T06:32:45;-1.50;99.90
8537;DHT22;4306;50.210;10.628;2022-11-20T06:35:12;-1.50;99.90
8537;DHT22;4306;50.210;10.628;2022-11-20T06:37:39;-1.40;99.90
8537;DHT22;4306;50.210;10.628;2022-11-20T06:40:07;-1.50;99.90
8537;DHT22;4306;50.210;10.628;2022-11-20T06:42:35;-1.50;99.90
8537;DHT22;4306;50.210;10.628;2022-11-20T06:45:02;-1.50;99.90
8537;DHT22;4306;50.210;10.628;2022-11-20T06:47:29;-1.60;99.90
8537;DHT22;4306;50.210;10.628;2022-11-20T06:49:56;-1.60;99.90
8537;DHT22;4306;50.210;10.628;2022-11-20T06:52:23;-1.50;99.90
8537;DHT22;4306;50.210;10.628;2022-11-20T06:54:50;-1.50;99.90
8537;DHT22;4306;50.210;10.628;2022-11-20T06:57:16;-1.50;99.90
8537;DHT22;4306;50.210;10.628;2022-11-20T06:59:45;-1.40;99.90
8537;DHT22;4306;50.210;10.628;2022-11-20T07:02:11;-1.40;99.90
8537;DHT22;4306;50.210;10.628;2022-11-20T07:04:38;-1.40;99.90
8537;DHT22;4306;50.210;10.628;2022-11-20T07:07:05;-1.30;99.90
8537;DHT22;4306;50.210;10.628;2022-11-20T07:09:32;-1.30;99.90
8537;DHT22;4306;50.210;10.628;2022-11-20T07:11:59;-1.40;99.90
8537;DHT22;4306;50.210;10.628;2022-11-20T07:14:27;-1.30;99.90
8537;DHT22;4306;50.210;10.628;2022-11-20T07:16:55;-1.30;99.90
8537;DHT22;4306;50.210;10.628;2022-11-20T07:19:22;-1.30;99.90
8537;DHT22;4306;50.210;10.628;2022-11-20T07:21:49;-1.30;99.90
8537;DHT22;4306;50.210;10.628;2022-11-20T07:24:16;-1.20;99.90
8537;DHT22;4306;50.210;10.628;2022-11-20T07:26:42;-1.20;99.90
8537;DHT22;4306;50.210;10.628;2022-11-20T07:29:12;-1.20;99.90
8537;DHT22;4306;50.210;10.628;2022-11-20T07:31:39;-1.20;99.90
8537;DHT22;4306;50.210;10.628;2022-11-20T07:34:07;-1.10;99.90
8537;DHT22;4306;50.210;10.628;2022-11-20T07:36:34;-1.10;99.90
8537;DHT22;4306;50.210;10.628;2022-11-20T07:39:00;-1.10;99.90
8537;DHT22;4306;50.210;10.628;2022-11-20T07:41:27;-1.10;99.90
8537;DHT22;4306;50.210;10.628;2022-11-20T07:43:54;-1.00;99.90
8537;DHT22;4306;50.210;10.628;2022-11-20T07:46:21;-1.00;99.90
8537;DHT22;4306;50.210;10.628;2022-11-20T07:48:48;-1.00;99.90
8537;DHT22;4306;50.210;10.628;2022-11-20T07:51:25;-0.90;99.90
8537;DHT22;4306;50.210;10.628;2022-11-20T07:53:53;-0.80;99.90
8537;DHT22;4306;50.210;10.628;2022-11-20T07:56:20;-0.80;99.90
8537;DHT22;4306;50.210;10.628;2022-11-20T07:58:47;-0.90;99.90
8537;DHT22;4306;50.210;10.628;2022-11-20T08:01:14;-0.80;99.90
8537;DHT22;4306;50.210;10.628;2022-11-20T08:03:40;-0.80;99.90
8537;DHT22;4306;50.210;10.628;2022-11-20T08:06:08;-0.80;99.90
8537;DHT22;4306;50.210;10.628;2022-11-20T08:08:36;-0.80;99.90
8537;DHT22;4306;50.210;10.628;2022-11-20T08:11:05;-1.00;99.90
8537;DHT22;4306;50.210;10.628;2022-11-20T08:13:49;-0.90;99.90
8537;DHT22;4306;50.210;10.628;2022-11-20T08:16:33;-0.80;99.90
8537;DHT22;4306;50.210;10.628;2022-11-20T08:19:00;-0.80;99.90
8537;DHT22;4306;50.210;10.628;2022-11-20T08:21:27;-0.90;99.90
8537;DHT22;4306;50.210;10.628;2022-11-20T08:23:56;-0.70;99.90
8537;DHT22;4306;50.210;10.628;2022-11-20T08:26:23;-0.60;99.90
8537;DHT22;4306;50.210;10.628;2022-11-20T08:28:53;-0.50;99.90
8537;DHT22;4306;50.210;10.628;2022-11-20T08:31:21;-0.60;99.90
8537;DHT22;4306;50.210;10.628;2022-11-20T08:33:47;-0.60;99.90
8537;DHT22;4306;50.210;10.628;2022-11-20T08:36:14;-0.50;99.90
8537;DHT22;4306;50.210;10.628;2022-11-20T08:38:41;-0.50;99.90
8537;DHT22;4306;50.210;10.628;2022-11-20T08:41:10;-0.40;99.90
8537;DHT22;4306;50.210;10.628;2022-11-20T08:43:54;-0.40;99.90
8537;DHT22;4306;50.210;10.628;2022-11-20T08:46:22;-0.40;99.90
8537;DHT22;4306;50.210;10.628;2022-11-20T08:48:49;-0.40;99.90
8537;DHT22;4306;50.210;10.628;2022-11-20T08:51:19;-0.50;99.90
8537;DHT22;4306;50.210;10.628;2022-11-20T08:53:47;-0.30;99.90
8537;DHT22;4306;50.210;10.628;2022-11-20T08:56:16;-0.30;99.90
8537;DHT22;4306;50.210;10.628;2022-11-20T08:58:43;-0.20;99.90
8537;DHT22;4306;50.210;10.628;2022-11-20T09:01:10;-0.10;99.90
8537;DHT22;4306;50.210;10.628;2022-11-20T09:03:37;-0.10;99.90
8537;DHT22;4306;50.210;10.628;2022-11-20T09:06:06;0.00;99.90
8537;DHT22;4306;50.210;10.628;2022-11-20T09:08:33;0.10;99.90
8537;DHT22;4306;50.210;10.628;2022-11-20T09:11:01;0.00;99.90
8537;DHT22;4306;50.210;10.628;2022-11-20T09:13:31;0.10;99.90
8537;DHT22;4306;50.210;10.628;2022-11-20T09:15:59;0.10;99.90
8537;DHT22;4306;50.210;10.628;2022-11-20T09:18:27;0.20;99.90
8537;DHT22;4306;50.210;10.628;2022-11-20T09:20:56;0.20;99.90
8537;DHT22;4306;50.210;10.628;2022-11-20T09:23:24;0.20;99.90
8537;DHT22;4306;50.210;10.628;2022-11-20T09:25:51;0.20;99.90
8537;DHT22;4306;50.210;10.628;2022-11-20T09:28:21;0.20;99.90
8537;DHT22;4306;50.210;10.628;2022-11-20T09:30:49;0.20;99.90
8537;DHT22;4306;50.210;10.628;2022-11-20T09:33:16;0.30;99.90
8537;DHT22;4306;50.210;10.628;2022-11-20T09:35:43;0.30;99.90
8537;DHT22;4306;50.210;10.628;2022-11-20T09:38:10;0.30;99.90
8537;DHT22;4306;50.210;10.628;2022-11-20T09:40:40;0.10;99.90
8537;DHT22;4306;50.210;10.628;2022-11-20T09:43:14;0.00;99.90
8537;DHT22;4306;50.210;10.628;2022-11-20T09:45:56;0.10;99.90
8537;DHT22;4306;50.210;10.628;2022-11-20T09:48:36;-0.10;99.90
8537;DHT22;4306;50.210;10.628;2022-11-20T09:51:13;0.10;99.90
8537;DHT22;4306;50.210;10.628;2022-11-20T09:53:52;0.00;99.90
8537;DHT22;4306;50.210;10.628;2022-11-20T09:56:23;0.10;99.90
8537;DHT22;4306;50.210;10.628;2022-11-20T09:58:52;0.20;99.90
8537;DHT22;4306;50.210;10.628;2022-11-20T10:01:26;0.30;99.90
8537;DHT22;4306;50.210;10.628;2022-11-20T10:03:56;0.20;99.90
8537;DHT22;4306;50.210;10.628;2022-11-20T10:06:29;0.30;99.90
8537;DHT22;4306;50.210;10.628;2022-11-20T10:09:05;0.40;99.90
8537;DHT22;4306;50.210;10.628;2022-11-20T10:11:41;0.50;99.90
8537;DHT22;4306;50.210;10.628;2022-11-20T10:14:19;0.60;99.90
8537;DHT22;4306;50.210;10.628;2022-11-20T10:16:54;0.60;99.90
8537;DHT22;4306;50.210;10.628;2022-11-20T10:19:38;0.70;99.90
8537;DHT22;4306;50.210;10.628;2022-11-20T10:22:13;0.70;99.90
8537;DHT22;4306;50.210;10.628;2022-11-20T10:24:45;0.80;99.90
8537;DHT22;4306;50.210;10.628;2022-11-20T10:30:12;0.90;99.90
8537;DHT22;4306;50.210;10.628;2022-11-20T10:32:43;0.90;99.90
8537;DHT22;4306;50.210;10.628;2022-11-20T10:35:19;0.90;99.90
8537;DHT22;4306;50.210;10.628;2022-11-20T10:37:49;1.00;99.90
8537;DHT22;4306;50.210;10.628;2022-11-20T10:40:24;1.00;99.90
8537;DHT22;4306;50.210;10.628;2022-11-20T10:42:55;1.00;99.90
8537;DHT22;4306;50.210;10.628;2022-11-20T10:45:35;1.00;99.90
8537;DHT22;4306;50.210;10.628;2022-11-20T10:48:13;1.00;99.90
8537;DHT22;4306;50.210;10.628;2022-11-20T10:50:54;1.00;99.90
8537;DHT22;4306;50.210;10.628;2022-11-20T10:53:33;1.00;99.90
8537;DHT22;4306;50.210;10.628;2022-11-20T10:56:05;1.10;99.90
8537;DHT22;4306;50.210;10.628;2022-11-20T10:58:42;1.20;99.90
8537;DHT22;4306;50.210;10.628;2022-11-20T11:01:15;1.20;99.90
8537;DHT22;4306;50.210;10.628;2022-11-20T11:03:43;1.30;99.90
8537;DHT22;4306;50.210;10.628;2022-11-20T11:06:17;1.40;99.90
8537;DHT22;4306;50.210;10.628;2022-11-20T11:08:47;1.40;99.90
8537;DHT22;4306;50.210;10.628;2022-11-20T11:11:21;1.40;99.90
8537;DHT22;4306;50.210;10.628;2022-11-20T11:13:49;1.40;99.90
8537;DHT22;4306;50.210;10.628;2022-11-20T11:16:20;1.40;99.90
8537;DHT22;4306;50.210;10.628;2022-11-20T11:18:49;1.50;99.90
8537;DHT22;4306;50.210;10.628;2022-11-20T11:21:22;1.50;99.90
8537;DHT22;4306;50.210;10.628;2022-11-20T11:23:58;1.50;99.90
8537;DHT22;4306;50.210;10.628;2022-11-20T11:26:26;1.50;99.90
8537;DHT22;4306;50.210;10.628;2022-11-20T11:28:55;1.60;99.90
8537;DHT22;4306;50.210;10.628;2022-11-20T11:31:23;2.00;99.90
8537;DHT22;4306;50.210;10.628;2022-11-20T11:33:51;1.80;99.90
8537;DHT22;4306;50.210;10.628;2022-11-20T11:36:22;1.70;99.90
8537;DHT22;4306;50.210;10.628;2022-11-20T11:38:52;1.60;99.90
8537;DHT22;4306;50.210;10.628;2022-11-20T11:41:22;1.70;99.90
8537;DHT22;4306;50.210;10.628;2022-11-20T11:43:52;1.80;99.90
8537;DHT22;4306;50.210;10.628;2022-11-20T11:46:37;1.80;99.90
8537;DHT22;4306;50.210;10.628;2022-11-20T11:49:16;2.10;99.90
8537;DHT22;4306;50.210;10.628;2022-11-20T11:51:54;2.00;99.90
8537;DHT22;4306;50.210;10.628;2022-11-20T11:54:25;2.10;99.90
8537;DHT22;4306;50.210;10.628;2022-11-20T11:56:53;2.10;99.90
8537;DHT22;4306;50.210;10.628;2022-11-20T11:59:26;2.20;99.90
8537;DHT22;4306;50.210;10.628;2022-11-20T12:01:55;2.20;99.90
8537;DHT22;4306;50.210;10.628;2022-11-20T12:04:40;2.30;99.90
8537;DHT22;4306;50.210;10.628;2022-11-20T12:07:11;2.30;99.90
8537;DHT22;4306;50.210;10.628;2022-11-20T12:09:46;2.50;99.90
8537;DHT22;4306;50.210;10.628;2022-11-20T12:12:18;2.30;99.90
8537;DHT22;4306;50.210;10.628;2022-11-20T12:14:48;2.40;99.90
8537;DHT22;4306;50.210;10.628;2022-11-20T12:17:18;2.40;99.90
8537;DHT22;4306;50.210;10.628;2022-11-20T12:19:46;2.50;99.90
8537;DHT22;4306;50.210;10.628;2022-11-20T12:22:30;2.50;99.90
8537;DHT22;4306;50.210;10.628;2022-11-20T12:25:03;2.60;99.90
8537;DHT22;4306;50.210;10.628;2022-11-20T12:27:55;2.60;99.90
8537;DHT22;4306;50.210;10.628;2022-11-20T12:30:23;2.70;99.90
8537;DHT22;4306;50.210;10.628;2022-11-20T12:33:18;2.70;99.90
8537;DHT22;4306;50.210;10.628;2022-11-20T12:36:08;2.70;99.90
8537;DHT22;4306;50.210;10.628;2022-11-20T12:38:57;2.80;99.90
8537;DHT22;4306;50.210;10.628;2022-11-20T12:41:42;2.60;99.90
8537;DHT22;4306;50.210;10.628;2022-11-20T12:44:57;2.70;99.90
8537;DHT22;4306;50.210;10.628;2022-11-20T12:47:55;2.80;99.90
8537;DHT22;4306;50.210;10.628;2022-11-20T12:50:36;2.70;99.90
8537;DHT22;4306;50.210;10.628;2022-11-20T12:53:14;2.80;99.90
8537;DHT22;4306;50.210;10.628;2022-11-20T12:55:51;2.80;99.90
8537;DHT22;4306;50.210;10.628;2022-11-20T12:58:39;2.80;99.90
8537;DHT22;4306;50.210;10.628;2022-11-20T13:01:25;2.80;99.90
8537;DHT22;4306;50.210;10.628;2022-11-20T13:04:38;2.80;99.90
8537;DHT22;4306;50.210;10.628;2022-11-20T13:07:10;2.70;99.90
8537;DHT22;4306;50.210;10.628;2022-11-20T13:09:42;2.70;99.90
8537;DHT22;4306;50.210;10.628;2022-11-20T13:12:13;2.80;99.90
8537;DHT22;4306;50.210;10.628;2022-11-20T13:14:47;2.60;99.90
8537;DHT22;4306;50.210;10.628;2022-11-20T13:17:20;2.70;99.90
8537;DHT22;4306;50.210;10.628;2022-11-20T13:19:51;2.60;99.90
8537;DHT22;4306;50.210;10.628;2022-11-20T13:22:27;2.70;99.90
8537;DHT22;4306;50.210;10.628;2022-11-20T13:24:55;2.60;99.90
8537;DHT22;4306;50.210;10.628;2022-11-20T13:27:23;2.50;99.90
8537;DHT22;4306;50.210;10.628;2022-11-20T13:30:02;2.30;99.90
8537;DHT22;4306;50.210;10.628;2022-11-20T13:32:48;2.30;99.90
8537;DHT22;4306;50.210;10.628;2022-11-20T13:35:28;2.40;99.90
8537;DHT22;4306;50.210;10.628;2022-11-20T13:38:06;2.40;99.90
8537;DHT22;4306;50.210;10.628;2022-11-20T13:40:36;2.40;99.90
8537;DHT22;4306;50.210;10.628;2022-11-20T13:43:18;2.50;99.90
8537;DHT22;4306;50.210;10.628;2022-11-20T13:45:54;2.40;99.90
8537;DHT22;4306;50.210;10.628;2022-11-20T13:48:23;2.40;99.90
8537;DHT22;4306;50.210;10.628;2022-11-20T13:51:13;2.50;99.90
8537;DHT22;4306;50.210;10.628;2022-11-20T13:56:50;2.30;99.90
8537;DHT22;4306;50.210;10.628;2022-11-20T13:59:32;2.40;99.90
8537;DHT22;4306;50.210;10.628;2022-11-20T14:02:02;2.40;99.90
8537;DHT22;4306;50.210;10.628;2022-11-20T14:04:33;2.40;99.90
8537;DHT22;4306;50.210;10.628;2022-11-20T14:07:01;2.40;99.90
8537;DHT22;4306;50.210;10.628;2022-11-20T14:09:33;2.40;99.90
8537;DHT22;4306;50.210;10.628;2022-11-20T14:12:03;2.40;99.90
8537;DHT22;4306;50.210;10.628;2022-11-20T14:14:30;2.40;99.90
8537;DHT22;4306;50.210;10.628;2022-11-20T14:17:06;2.40;99.90
8537;DHT22;4306;50.210;10.628;2022-11-20T14:19:33;2.40;99.90
8537;DHT22;4306;50.210;10.628;2022-11-20T14:22:15;2.40;99.90
8537;DHT22;4306;50.210;10.628;2022-11-20T14:24:44;2.40;99.90
8537;DHT22;4306;50.210;10.628;2022-11-20T14:27:14;2.40;99.90
8537;DHT22;4306;50.210;10.628;2022-11-20T14:29:43;2.40;99.90
8537;DHT22;4306;50.210;10.628;2022-11-20T14:32:11;2.40;99.90
8537;DHT22;4306;50.210;10.628;2022-11-20T14:34:40;2.40;99.90
8537;DHT22;4306;50.210;10.628;2022-11-20T14:37:12;2.30;99.90
8537;DHT22;4306;50.210;10.628;2022-11-20T14:39:42;2.30;99.90
8537;DHT22;4306;50.210;10.628;2022-11-20T14:42:16;2.20;99.90
8537;DHT22;4306;50.210;10.628;2022-11-20T14:44:44;2.20;99.90
8537;DHT22;4306;50.210;10.628;2022-11-20T14:47:13;2.30;99.90
8537;DHT22;4306;50.210;10.628;2022-11-20T14:49:41;2.20;99.90
8537;DHT22;4306;50.210;10.628;2022-11-20T14:52:14;2.20;99.90
8537;DHT22;4306;50.210;10.628;2022-11-20T14:54:45;2.20;99.90
8537;DHT22;4306;50.210;10.628;2022-11-20T14:57:23;2.20;99.90
8537;DHT22;4306;50.210;10.628;2022-11-20T14:59:51;2.30;99.90
8537;DHT22;4306;50.210;10.628;2022-11-20T15:02:18;2.30;99.90
8537;DHT22;4306;50.210;10.628;2022-11-20T15:04:46;2.30;99.90
8537;DHT22;4306;50.210;10.628;2022-11-20T15:07:24;2.40;99.90
8537;DHT22;4306;50.210;10.628;2022-11-20T15:10:06;2.30;99.90
8537;DHT22;4306;50.210;10.628;2022-11-20T15:12:37;2.30;99.90
8537;DHT22;4306;50.210;10.628;2022-11-20T15:15:08;2.30;99.90
8537;DHT22;4306;50.210;10.628;2022-11-20T15:17:40;2.30;99.90
8537;DHT22;4306;50.210;10.628;2022-11-20T15:20:12;2.30;99.90
8537;DHT22;4306;50.210;10.628;2022-11-20T15:22:40;2.30;99.90
8537;DHT22;4306;50.210;10.628;2022-11-20T15:25:12;2.30;99.90
8537;DHT22;4306;50.210;10.628;2022-11-20T15:27:41;2.30;99.90
8537;DHT22;4306;50.210;10.628;2022-11-20T15:30:18;2.30;99.90
8537;DHT22;4306;50.210;10.628;2022-11-20T15:32:46;2.30;99.90
8537;DHT22;4306;50.210;10.628;2022-11-20T15:35:14;2.30;99.90
8537;DHT22;4306;50.210;10.628;2022-11-20T15:37:42;2.30;99.90
8537;DHT22;4306;50.210;10.628;2022-11-20T15:40:10;2.30;99.90
8537;DHT22;4306;50.210;10.628;2022-11-20T15:42:37;2.30;99.90
8537;DHT22;4306;50.210;10.628;2022-11-20T15:45:05;2.30;99.90
8537;DHT22;4306;50.210;10.628;2022-11-20T15:47:34;2.20;99.90
8537;DHT22;4306;50.210;10.628;2022-11-20T15:50:03;2.20;99.90
8537;DHT22;4306;50.210;10.628;2022-11-20T15:52:30;2.20;99.90
8537;DHT22;4306;50.210;10.628;2022-11-20T15:54:56;2.20;99.90
8537;DHT22;4306;50.210;10.628;2022-11-20T15:57:23;2.30;99.90
8537;DHT22;4306;50.210;10.628;2022-11-20T15:59:50;2.30;99.90
8537;DHT22;4306;50.210;10.628;2022-11-20T16:02:18;2.30;99.90
8537;DHT22;4306;50.210;10.628;2022-11-20T16:04:45;2.30;99.90
8537;DHT22;4306;50.210;10.628;2022-11-20T16:07:12;2.30;99.90
8537;DHT22;4306;50.210;10.628;2022-11-20T16:09:39;2.30;99.90
8537;DHT22;4306;50.210;10.628;2022-11-20T16:12:08;2.30;99.90
8537;DHT22;4306;50.210;10.628;2022-11-20T16:14:56;2.30;99.90
8537;DHT22;4306;50.210;10.628;2022-11-20T16:17:50;2.40;99.90
8537;DHT22;4306;50.210;10.628;2022-11-20T16:20:17;2.50;99.90